sensor_id;sensor_type;location;lat;lon;timestamp;P1;durP1;ratioP1;P2;durP2;ratioP2
50086;SDS011;35967;50.718;7.050;2023-10-08T00:02:40;11.77;;;2.73;;
50086;SDS011;35967;50.718;7.050;2023-10-08T00:12:44;7.20;;;2.40;;
50086;SDS011;35967;50.718;7.050;2023-10-08T00:22:50;7.23;;;2.60;;
50086;SDS011;35967;50.718;7.050;2023-10-08T00:32:56;6.65;;;2.30;;
50086;SDS011;35967;50.718;7.050;2023-10-08T00:43:00;9.10;;;2.07;;
50086;SDS011;35967;50.718;7.050;2023-10-08T00:53:05;7.00;;;2.20;;
50086;SDS011;35967;50.718;7.050;2023-10-08T01:03:24;7.43;;;2.50;;
50086;SDS011;35967;50.718;7.050;2023-10-08T01:13:32;10.00;;;2.80;;
50086;SDS011;35967;50.718;7.050;2023-10-08T01:23:47;11.27;;;2.40;;
50086;SDS011;35967;50.718;7.050;2023-10-08T01:33:51;6.63;;;2.43;;
50086;SDS011;35967;50.718;7.050;2023-10-08T01:43:59;10.13;;;2.80;;
50086;SDS011;35967;50.718;7.050;2023-10-08T01:54:04;7.27;;;2.37;;
50086;SDS011;35967;50.718;7.050;2023-10-08T02:04:14;6.77;;;2.20;;
50086;SDS011;35967;50.718;7.050;2023-10-08T02:14:19;7.50;;;2.60;;
50086;SDS011;35967;50.718;7.050;2023-10-08T02:24:25;6.13;;;2.47;;
50086;SDS011;35967;50.718;7.050;2023-10-08T02:34:31;10.57;;;2.83;;
50086;SDS011;35967;50.718;7.050;2023-10-08T02:44:36;7.30;;;2.50;;
50086;SDS011;35967;50.718;7.050;2023-10-08T02:54:43;9.87;;;3.10;;
50086;SDS011;35967;50.718;7.050;2023-10-08T03:04:48;7.03;;;2.60;;
50086;SDS011;35967;50.718;7.050;2023-10-08T03:14:54;10.27;;;2.60;;
50086;SDS011;35967;50.718;7.050;2023-10-08T03:25:15;7.60;;;2.53;;
50086;SDS011;35967;50.718;7.050;2023-10-08T03:35:21;8.73;;;2.03;;
50086;SDS011;35967;50.718;7.050;2023-10-08T03:45:31;8.40;;;2.23;;
50086;SDS011;35967;50.718;7.050;2023-10-08T03:55:55;7.57;;;2.33;;
50086;SDS011;35967;50.718;7.050;2023-10-08T04:06:04;7.03;;;2.27;;
50086;SDS011;35967;50.718;7.050;2023-10-08T04:16:16;7.70;;;2.57;;
50086;SDS011;35967;50.718;7.050;2023-10-08T04:26:23;7.67;;;2.70;;
50086;SDS011;35967;50.718;7.050;2023-10-08T04:36:26;7.97;;;2.50;;
50086;SDS011;35967;50.718;7.050;2023-10-08T04:46:31;7.60;;;2.20;;
50086;SDS011;35967;50.718;7.050;2023-10-08T04:56:49;9.33;;;3.43;;
50086;SDS011;35967;50.718;7.050;2023-10-08T05:06:55;7.00;;;2.43;;
50086;SDS011;35967;50.718;7.050;2023-10-08T05:17:30;8.43;;;2.37;;
50086;SDS011;35967;50.718;7.050;2023-10-08T05:27:47;9.57;;;2.73;;
50086;SDS011;35967;50.718;7.050;2023-10-08T05:38:00;10.63;;;2.77;;
50086;SDS011;35967;50.718;7.050;2023-10-08T05:48:15;11.13;;;2.47;;
50086;SDS011;35967;50.718;7.050;2023-10-08T05:58:25;16.00;;;3.70;;
50086;SDS011;35967;50.718;7.050;2023-10-08T06:08:37;8.63;;;2.80;;
50086;SDS011;35967;50.718;7.050;2023-10-08T06:18:54;10.37;;;3.60;;
50086;SDS011;35967;50.718;7.050;2023-10-08T06:28:57;9.30;;;3.10;;
50086;SDS011;35967;50.718;7.050;2023-10-08T06:39:02;7.13;;;2.90;;
50086;SDS011;35967;50.718;7.050;2023-10-08T06:49:07;12.43;;;3.17;;
50086;SDS011;35967;50.718;7.050;2023-10-08T06:59:15;11.52;;;2.97;;
50086;SDS011;35967;50.718;7.050;2023-10-08T07:09:19;11.07;;;3.77;;
50086;SDS011;35967;50.718;7.050;2023-10-08T07:19:32;13.33;;;3.63;;
50086;SDS011;35967;50.718;7.050;2023-10-08T07:29:40;8.47;;;2.80;;
50086;SDS011;35967;50.718;7.050;2023-10-08T07:39:44;11.30;;;2.90;;
50086;SDS011;35967;50.718;7.050;2023-10-08T07:49:49;7.60;;;2.40;;
50086;SDS011;35967;50.718;7.050;2023-10-08T07:59:55;11.73;;;2.97;;
50086;SDS011;35967;50.718;7.050;2023-10-08T08:10:18;10.63;;;2.83;;
50086;SDS011;35967;50.718;7.050;2023-10-08T08:20:26;7.03;;;2.67;;
50086;SDS011;35967;50.718;7.050;2023-10-08T08:30:41;10.63;;;3.30;;
50086;SDS011;35967;50.718;7.050;2023-10-08T08:40:49;11.18;;;3.33;;
50086;SDS011;35967;50.718;7.050;2023-10-08T08:50:53;11.60;;;3.83;;
50086;SDS011;35967;50.718;7.050;2023-10-08T09:00:59;11.43;;;3.10;;
50086;SDS011;35967;50.718;7.050;2023-10-08T09:11:05;10.77;;;3.27;;
50086;SDS011;35967;50.718;7.050;2023-10-08T09:21:11;10.00;;;3.03;;
50086;SDS011;35967;50.718;7.050;2023-10-08T09:41:21;14.17;;;3.40;;
50086;SDS011;35967;50.718;7.050;2023-10-08T09:51:25;18.87;;;4.43;;
50086;SDS011;35967;50.718;7.050;2023-10-08T10:01:33;13.53;;;4.60;;
50086;SDS011;35967;50.718;7.050;2023-10-08T10:11:36;18.85;;;5.63;;
50086;SDS011;35967;50.718;7.050;2023-10-08T10:21:40;21.70;;;4.88;;
50086;SDS011;35967;50.718;7.050;2023-10-08T10:31:45;19.83;;;6.63;;
50086;SDS011;35967;50.718;7.050;2023-10-08T10:41:50;18.83;;;5.32;;
50086;SDS011;35967;50.718;7.050;2023-10-08T10:51:57;22.75;;;6.13;;
50086;SDS011;35967;50.718;7.050;2023-10-08T11:02:01;19.83;;;6.18;;
50086;SDS011;35967;50.718;7.050;2023-10-08T11:12:10;19.38;;;6.65;;
50086;SDS011;35967;50.718;7.050;2023-10-08T11:22:17;19.85;;;6.05;;
50086;SDS011;35967;50.718;7.050;2023-10-08T11:32:24;17.52;;;5.97;;
50086;SDS011;35967;50.718;7.050;2023-10-08T11:42:30;19.55;;;5.60;;
50086;SDS011;35967;50.718;7.050;2023-10-08T11:52:46;20.92;;;5.13;;
50086;SDS011;35967;50.718;7.050;2023-10-08T12:02:52;19.50;;;5.53;;
50086;SDS011;35967;50.718;7.050;2023-10-08T12:12:57;20.37;;;5.67;;
50086;SDS011;35967;50.718;7.050;2023-10-08T12:23:03;15.25;;;4.82;;
50086;SDS011;35967;50.718;7.050;2023-10-08T12:33:07;18.70;;;5.43;;
50086;SDS011;35967;50.718;7.050;2023-10-08T12:43:16;21.15;;;6.38;;
50086;SDS011;35967;50.718;7.050;2023-10-08T12:53:21;18.23;;;5.73;;
50086;SDS011;35967;50.718;7.050;2023-10-08T13:03:30;23.08;;;5.60;;
50086;SDS011;35967;50.718;7.050;2023-10-08T13:13:33;20.15;;;6.40;;
50086;SDS011;35967;50.718;7.050;2023-10-08T13:23:39;19.67;;;5.95;;
50086;SDS011;35967;50.718;7.050;2023-10-08T13:33:43;19.73;;;6.75;;
50086;SDS011;35967;50.718;7.050;2023-10-08T13:43:51;27.83;;;7.32;;
50086;SDS011;35967;50.718;7.050;2023-10-08T13:53:55;18.27;;;6.00;;
50086;SDS011;35967;50.718;7.050;2023-10-08T14:04:03;21.85;;;7.38;;
50086;SDS011;35967;50.718;7.050;2023-10-08T14:14:08;28.70;;;6.97;;
50086;SDS011;35967;50.718;7.050;2023-10-08T14:24:14;34.08;;;7.18;;
50086;SDS011;35967;50.718;7.050;2023-10-08T14:34:18;18.58;;;6.65;;
50086;SDS011;35967;50.718;7.050;2023-10-08T14:44:45;22.85;;;8.25;;
50086;SDS011;35967;50.718;7.050;2023-10-08T14:54:49;24.50;;;7.60;;
50086;SDS011;35967;50.718;7.050;2023-10-08T15:04:55;20.02;;;7.28;;
50086;SDS011;35967;50.718;7.050;2023-10-08T15:14:59;28.25;;;7.88;;
50086;SDS011;35967;50.718;7.050;2023-10-08T15:25:04;20.67;;;7.38;;
50086;SDS011;35967;50.718;7.050;2023-10-08T15:35:08;28.45;;;7.75;;
50086;SDS011;35967;50.718;7.050;2023-10-08T15:45:14;17.23;;;6.32;;
50086;SDS011;35967;50.718;7.050;2023-10-08T15:55:17;27.98;;;8.48;;
50086;SDS011;35967;50.718;7.050;2023-10-08T16:05:26;20.13;;;8.23;;
50086;SDS011;35967;50.718;7.050;2023-10-08T16:15:33;28.67;;;10.20;;
50086;SDS011;35967;50.718;7.050;2023-10-08T16:25:38;23.50;;;8.85;;
50086;SDS011;35967;50.718;7.050;2023-10-08T16:35:41;26.60;;;10.10;;
50086;SDS011;35967;50.718;7.050;2023-10-08T16:45:49;25.93;;;8.67;;
50086;SDS011;35967;50.718;7.050;2023-10-08T16:55:52;28.23;;;8.93;;
50086;SDS011;35967;50.718;7.050;2023-10-08T17:05:56;19.85;;;8.73;;
50086;SDS011;35967;50.718;7.050;2023-10-08T17:16:00;18.77;;;7.82;;
50086;SDS011;35967;50.718;7.050;2023-10-08T17:26:06;29.37;;;9.40;;
50086;SDS011;35967;50.718;7.050;2023-10-08T17:46:16;29.87;;;13.37;;
50086;SDS011;35967;50.718;7.050;2023-10-08T17:56:19;28.10;;;13.40;;
50086;SDS011;35967;50.718;7.050;2023-10-08T18:06:23;26.27;;;11.30;;
50086;SDS011;35967;50.718;7.050;2023-10-08T18:16:27;24.13;;;10.80;;
50086;SDS011;35967;50.718;7.050;2023-10-08T18:26:32;23.47;;;9.83;;
50086;SDS011;35967;50.718;7.050;2023-10-08T18:36:37;20.60;;;9.77;;
50086;SDS011;35967;50.718;7.050;2023-10-08T18:46:42;24.90;;;10.73;;
50086;SDS011;35967;50.718;7.050;2023-10-08T18:56:47;22.70;;;10.73;;
50086;SDS011;35967;50.718;7.050;2023-10-08T19:06:53;26.83;;;12.10;;
50086;SDS011;35967;50.718;7.050;2023-10-08T19:16:56;28.40;;;11.87;;
50086;SDS011;35967;50.718;7.050;2023-10-08T19:27:00;24.57;;;11.67;;
50086;SDS011;35967;50.718;7.050;2023-10-08T19:37:03;26.30;;;11.40;;
50086;SDS011;35967;50.718;7.050;2023-10-08T19:47:08;19.80;;;10.13;;
50086;SDS011;35967;50.718;7.050;2023-10-08T19:57:11;24.07;;;9.33;;
50086;SDS011;35967;50.718;7.050;2023-10-08T20:07:16;17.43;;;8.77;;
50086;SDS011;35967;50.718;7.050;2023-10-08T20:17:20;22.37;;;9.37;;
50086;SDS011;35967;50.718;7.050;2023-10-08T20:27:24;24.50;;;10.33;;
50086;SDS011;35967;50.718;7.050;2023-10-08T20:37:27;23.20;;;9.43;;
50086;SDS011;35967;50.718;7.050;2023-10-08T20:47:32;21.77;;;10.37;;
50086;SDS011;35967;50.718;7.050;2023-10-08T20:57:37;26.70;;;10.27;;
50086;SDS011;35967;50.718;7.050;2023-10-08T21:07:44;21.50;;;10.30;;
50086;SDS011;35967;50.718;7.050;2023-10-08T21:17:48;21.53;;;8.83;;
50086;SDS011;35967;50.718;7.050;2023-10-08T21:27:57;22.00;;;9.80;;
50086;SDS011;35967;50.718;7.050;2023-10-08T21:38:02;21.13;;;9.50;;
50086;SDS011;35967;50.718;7.050;2023-10-08T21:48:08;18.07;;;8.80;;
50086;SDS011;35967;50.718;7.050;2023-10-08T21:58:11;20.47;;;9.03;;
50086;SDS011;35967;50.718;7.050;2023-10-08T22:08:16;17.07;;;8.20;;
50086;SDS011;35967;50.718;7.050;2023-10-08T22:18:23;18.67;;;8.20;;
50086;SDS011;35967;50.718;7.050;2023-10-08T22:28:32;16.30;;;7.80;;
50086;SDS011;35967;50.718;7.050;2023-10-08T22:38:38;14.37;;;6.83;;
50086;SDS011;35967;50.718;7.050;2023-10-08T22:48:43;13.07;;;6.90;;
50086;SDS011;35967;50.718;7.050;2023-10-08T22:58:51;13.13;;;6.57;;
50086;SDS011;35967;50.718;7.050;2023-10-08T23:08:58;14.60;;;6.57;;
50086;SDS011;35967;50.718;7.050;2023-10-08T23:19:03;12.87;;;5.10;;
50086;SDS011;35967;50.718;7.050;2023-10-08T23:29:08;10.03;;;5.33;;
50086;SDS011;35967;50.718;7.050;2023-10-08T23:39:11;12.17;;;5.60;;
50086;SDS011;35967;50.718;7.050;2023-10-08T23:49:22;12.20;;;5.27;;
50086;SDS011;35967;50.718;7.050;2023-10-08T23:59:29;11.30;;;5.70;;
